createdAt,value
2022-12-11T00:01:21.310Z,99.90
2022-12-11T00:04:06.680Z,99.90
2022-12-11T00:06:53.254Z,99.90
2022-12-11T00:09:38.485Z,99.90
2022-12-11T00:12:24.300Z,99.90
2022-12-11T00:15:10.512Z,99.90
2022-12-11T00:17:55.960Z,99.90
2022-12-11T00:20:41.715Z,99.70
2022-12-11T00:23:27.146Z,98.20
2022-12-11T00:26:15.652Z,99.00
2022-12-11T00:29:01.591Z,98.90
2022-12-11T00:31:47.087Z,98.80
2022-12-11T00:34:32.340Z,98.70
2022-12-11T00:37:17.912Z,95.30
2022-12-11T00:40:03.865Z,94.20
2022-12-11T00:42:49.524Z,95.20
2022-12-11T00:45:40.342Z,95.00
2022-12-11T00:48:25.779Z,94.30
2022-12-11T00:51:11.977Z,93.50
2022-12-11T00:53:57.687Z,85.50
2022-12-11T00:56:43.266Z,89.60
2022-12-11T00:59:29.097Z,90.30
2022-12-11T01:02:14.806Z,90.50
2022-12-11T01:05:00.125Z,89.40
2022-12-11T01:07:45.638Z,90.00
2022-12-11T01:10:32.044Z,90.40
2022-12-11T01:13:17.608Z,89.10
2022-12-11T01:16:11.024Z,91.50
2022-12-11T01:18:57.538Z,88.90
2022-12-11T01:21:42.676Z,88.40
2022-12-11T01:24:28.481Z,89.40
2022-12-11T01:27:13.823Z,87.10
2022-12-11T01:29:59.343Z,88.80
2022-12-11T01:32:44.821Z,91.30
2022-12-11T01:35:30.451Z,90.90
2022-12-11T01:38:15.756Z,92.20
2022-12-11T01:41:01.093Z,91.90
2022-12-11T01:43:56.615Z,92.90
2022-12-11T01:46:43.154Z,92.00
2022-12-11T01:49:29.517Z,92.80
2022-12-11T01:52:19.967Z,92.10
2022-12-11T01:55:06.818Z,92.10
2022-12-11T01:57:52.866Z,91.20
2022-12-11T02:00:38.116Z,90.30
2022-12-11T02:03:23.700Z,92.00
2022-12-11T02:07:01.492Z,90.30
2022-12-11T02:09:48.500Z,89.60
2022-12-11T02:13:01.704Z,89.50
2022-12-11T02:16:06.034Z,89.20
2022-12-11T02:18:55.533Z,88.60
2022-12-11T02:21:52.520Z,88.70
2022-12-11T02:24:59.160Z,89.60
2022-12-11T02:27:56.774Z,85.40
2022-12-11T02:30:45.432Z,89.00
2022-12-11T02:33:46.817Z,88.80
2022-12-11T02:36:40.520Z,87.80
2022-12-11T02:39:28.317Z,87.70
2022-12-11T02:42:16.408Z,87.00
2022-12-11T02:45:03.766Z,87.80
2022-12-11T02:47:50.522Z,87.80
2022-12-11T02:50:42.477Z,87.40
2022-12-11T02:53:31.223Z,87.30
2022-12-11T02:56:26.095Z,86.90
2022-12-11T02:59:16.045Z,86.60
2022-12-11T03:02:02.508Z,86.80
2022-12-11T03:04:48.504Z,85.70
2022-12-11T03:07:36.623Z,86.50
2022-12-11T03:10:22.972Z,87.20
2022-12-11T03:13:08.835Z,87.10
2022-12-11T03:16:29.408Z,86.00
2022-12-11T03:19:43.767Z,86.50
2022-12-11T03:22:41.233Z,87.40
2022-12-11T03:25:34.549Z,89.30
2022-12-11T03:28:37.507Z,90.60
2022-12-11T03:31:32.098Z,90.00
2022-12-11T03:34:19.987Z,90.20
2022-12-11T03:37:07.656Z,89.20
2022-12-11T03:39:59.257Z,87.70
2022-12-11T03:42:48.814Z,88.90
2022-12-11T03:45:37.242Z,88.90
2022-12-11T03:48:24.789Z,89.70
2022-12-11T03:51:10.462Z,88.10
2022-12-11T03:53:56.060Z,89.20
2022-12-11T03:56:45.117Z,91.00
2022-12-11T03:59:30.487Z,89.80
2022-12-11T04:02:16.114Z,89.60
2022-12-11T04:05:01.684Z,89.70
2022-12-11T04:07:47.009Z,88.60
2022-12-11T04:10:32.592Z,89.10
2022-12-11T04:13:17.990Z,89.00
2022-12-11T04:16:03.489Z,89.50
2022-12-11T04:19:07.444Z,88.90
2022-12-11T04:22:11.269Z,88.90
2022-12-11T04:24:56.564Z,87.00
2022-12-11T04:27:50.853Z,88.80
2022-12-11T04:30:36.347Z,89.00
2022-12-11T04:33:21.804Z,87.20
2022-12-11T04:36:08.307Z,88.70
2022-12-11T04:38:53.787Z,89.50
2022-12-11T04:41:41.172Z,89.30
2022-12-11T04:44:26.408Z,90.30
2022-12-11T04:47:16.360Z,92.70
2022-12-11T04:50:02.108Z,91.00
2022-12-11T04:52:47.668Z,91.00
2022-12-11T04:55:33.148Z,91.00
2022-12-11T04:58:18.679Z,90.10
2022-12-11T05:01:08.973Z,89.50
2022-12-11T05:03:54.689Z,90.50
2022-12-11T05:06:40.112Z,90.60
2022-12-11T05:09:26.271Z,90.50
2022-12-11T05:12:11.542Z,90.70
2022-12-11T05:14:57.317Z,89.80
2022-12-11T05:17:42.830Z,90.50
2022-12-11T05:20:28.202Z,89.30
2022-12-11T05:23:13.905Z,90.10
2022-12-11T05:26:02.288Z,89.40
2022-12-11T05:28:53.353Z,89.50
2022-12-11T05:31:38.832Z,89.60
2022-12-11T05:34:24.309Z,88.60
2022-12-11T05:37:09.826Z,89.30
2022-12-11T05:39:55.373Z,89.60
2022-12-11T05:42:40.908Z,88.40
2022-12-11T05:45:26.442Z,87.30
2022-12-11T05:48:12.008Z,88.40
2022-12-11T05:51:02.378Z,88.30
2022-12-11T05:53:49.996Z,87.30
2022-12-11T05:56:36.291Z,85.10
2022-12-11T05:59:22.228Z,86.50
2022-12-11T06:02:07.567Z,87.00
2022-12-11T06:04:53.121Z,85.20
2022-12-11T06:07:38.358Z,84.70
2022-12-11T06:10:23.945Z,87.30
2022-12-11T06:13:09.421Z,86.50
2022-12-11T06:15:55.103Z,85.80
2022-12-11T06:18:43.062Z,87.90
2022-12-11T06:21:33.326Z,88.30
2022-12-11T06:24:18.658Z,84.30
2022-12-11T06:27:04.173Z,86.50
2022-12-11T06:29:49.437Z,85.90
2022-12-11T06:32:34.657Z,85.40
2022-12-11T06:35:20.180Z,84.80
2022-12-11T06:38:05.699Z,86.00
2022-12-11T06:41:01.961Z,85.40
2022-12-11T06:43:47.868Z,87.60
2022-12-11T06:46:33.493Z,89.40
2022-12-11T06:49:19.136Z,85.90
2022-12-11T06:52:06.347Z,86.40
2022-12-11T06:54:51.695Z,84.30
2022-12-11T06:57:37.290Z,85.00
2022-12-11T07:00:22.629Z,84.40
2022-12-11T07:03:08.225Z,82.30
2022-12-11T07:05:53.610Z,86.00
2022-12-11T07:08:39.470Z,86.80
2022-12-11T07:11:25.042Z,84.50
2022-12-11T07:14:10.750Z,85.60
2022-12-11T07:16:56.055Z,88.20
2022-12-11T07:19:41.421Z,90.80
2022-12-11T07:22:26.875Z,89.60
2022-12-11T07:25:12.637Z,89.40
2022-12-11T07:27:58.799Z,90.40
2022-12-11T07:30:44.372Z,89.70
2022-12-11T07:33:29.698Z,88.70
2022-12-11T07:36:16.183Z,88.40
2022-12-11T07:39:02.092Z,87.80
2022-12-11T07:41:47.465Z,88.20
2022-12-11T07:44:33.171Z,88.30
2022-12-11T07:47:18.502Z,86.60
2022-12-11T07:50:04.310Z,88.20
2022-12-11T07:52:49.667Z,88.10
2022-12-11T07:55:35.494Z,87.10
2022-12-11T07:58:21.114Z,86.40
2022-12-11T08:01:12.665Z,88.70
2022-12-11T08:03:58.033Z,86.50
2022-12-11T08:06:43.784Z,86.80
2022-12-11T08:09:29.233Z,86.70
2022-12-11T08:12:15.181Z,86.90
2022-12-11T08:15:00.821Z,86.20
2022-12-11T08:17:46.423Z,84.40
2022-12-11T08:20:31.844Z,83.00
2022-12-11T08:23:17.140Z,82.50
2022-12-11T08:26:05.127Z,80.70
2022-12-11T08:28:50.534Z,81.10
2022-12-11T08:31:36.124Z,80.50
2022-12-11T08:34:21.520Z,80.50
2022-12-11T08:37:07.068Z,81.30
2022-12-11T08:39:52.703Z,81.90
2022-12-11T08:42:38.863Z,82.40
2022-12-11T08:45:24.671Z,81.50
2022-12-11T08:48:10.163Z,79.20
2022-12-11T08:50:55.515Z,80.40
2022-12-11T08:53:41.399Z,79.50
2022-12-11T08:56:27.546Z,78.10
2022-12-11T08:59:12.896Z,75.60
2022-12-11T09:01:58.640Z,75.60
2022-12-11T09:04:44.030Z,75.60
2022-12-11T09:07:29.508Z,71.60
2022-12-11T09:10:14.809Z,72.00
2022-12-11T09:13:00.200Z,71.50
2022-12-11T09:15:46.056Z,71.30
2022-12-11T09:18:31.590Z,71.00
2022-12-11T09:21:20.525Z,68.70
2022-12-11T09:24:06.293Z,66.90
2022-12-11T09:26:52.017Z,67.20
2022-12-11T09:29:38.706Z,66.70
2022-12-11T09:32:23.916Z,65.50
2022-12-11T09:35:10.227Z,64.60
2022-12-11T09:37:56.074Z,62.70
2022-12-11T09:40:43.371Z,62.70
2022-12-11T09:43:46.608Z,64.60
2022-12-11T09:46:34.527Z,63.80
2022-12-11T09:49:32.158Z,62.50
2022-12-11T09:52:17.600Z,61.40
2022-12-11T09:55:16.391Z,60.40
2022-12-11T09:58:20.916Z,58.10
2022-12-11T10:01:11.776Z,57.80
2022-12-11T10:03:59.882Z,56.40
2022-12-11T10:06:55.935Z,54.80
2022-12-11T10:10:05.187Z,55.00
2022-12-11T10:12:53.276Z,52.50
2022-12-11T10:15:52.403Z,52.90
2022-12-11T10:18:38.648Z,52.30
2022-12-11T10:21:25.257Z,50.60
2022-12-11T10:25:09.571Z,48.10
2022-12-11T10:27:43.567Z,47.20
2022-12-11T10:30:38.009Z,47.10
2022-12-11T10:33:50.504Z,47.70
2022-12-11T10:36:38.903Z,47.40
2022-12-11T10:39:24.325Z,45.60
2022-12-11T10:42:18.409Z,45.50
2022-12-11T10:45:05.937Z,50.00
2022-12-11T10:48:01.447Z,51.80
2022-12-11T10:51:03.911Z,52.20
2022-12-11T10:53:55.790Z,51.40
2022-12-11T10:56:41.328Z,50.60
2022-12-11T10:59:46.298Z,51.40
2022-12-11T11:02:37.614Z,51.70
2022-12-11T11:05:30.954Z,51.20
2022-12-11T11:08:20.194Z,50.30
2022-12-11T11:11:05.942Z,50.50
2022-12-11T11:13:51.973Z,52.00
2022-12-11T11:16:39.662Z,52.90
2022-12-11T11:19:29.430Z,53.20
2022-12-11T11:22:17.995Z,52.90
2022-12-11T11:25:05.238Z,53.80
2022-12-11T11:27:54.985Z,54.60
2022-12-11T11:30:42.527Z,54.10
2022-12-11T11:33:28.720Z,51.60
2022-12-11T11:36:24.342Z,50.10
2022-12-11T11:39:12.800Z,46.30
2022-12-11T11:42:40.586Z,46.50
2022-12-11T11:45:43.744Z,47.30
2022-12-11T11:48:48.816Z,51.50
2022-12-11T11:51:39.615Z,53.20
2022-12-11T11:54:36.646Z,49.80
2022-12-11T11:57:35.486Z,51.60
2022-12-11T12:00:33.126Z,51.80
2022-12-11T12:03:23.246Z,50.10
2022-12-11T12:06:28.201Z,51.00
2022-12-11T12:09:19.884Z,52.60
2022-12-11T12:12:24.751Z,52.40
2022-12-11T12:15:30.851Z,46.80
2022-12-11T12:18:22.672Z,47.30
2022-12-11T12:21:36.339Z,45.90
2022-12-11T12:24:43.509Z,49.70
2022-12-11T12:27:52.026Z,51.30
2022-12-11T12:31:03.338Z,50.80
2022-12-11T12:34:29.480Z,48.40
2022-12-11T12:37:30.327Z,48.30
2022-12-11T12:40:15.941Z,48.10
2022-12-11T12:43:26.588Z,47.40
2022-12-11T12:46:30.209Z,47.40
2022-12-11T12:49:31.431Z,49.50
2022-12-11T12:52:24.716Z,51.00
2022-12-11T12:55:22.847Z,50.10
2022-12-11T12:58:28.183Z,51.30
2022-12-11T13:01:13.525Z,51.20
2022-12-11T13:04:06.449Z,52.60
2022-12-11T13:06:53.279Z,53.50
2022-12-11T13:09:39.104Z,53.30
2022-12-11T13:12:41.171Z,53.80
2022-12-11T13:15:43.846Z,54.00
2022-12-11T13:18:37.218Z,54.20
2022-12-11T13:21:38.410Z,56.80
2022-12-11T13:24:26.071Z,58.10
2022-12-11T13:27:23.562Z,58.20
2022-12-11T13:30:15.308Z,58.50
2022-12-11T13:33:15.761Z,59.50
2022-12-11T13:36:24.743Z,57.80
2022-12-11T13:39:21.445Z,59.10
2022-12-11T13:42:20.838Z,58.30
2022-12-11T13:45:18.182Z,57.40
2022-12-11T13:48:15.443Z,57.50
2022-12-11T13:51:03.393Z,58.70
2022-12-11T13:53:49.631Z,59.80
2022-12-11T13:56:35.522Z,58.50
2022-12-11T13:59:26.459Z,59.00
2022-12-11T14:02:32.504Z,57.30
2022-12-11T14:05:18.909Z,57.90
2022-12-11T14:08:11.294Z,58.50
2022-12-11T14:10:57.339Z,57.50
2022-12-11T14:13:43.661Z,58.70
2022-12-11T14:16:29.687Z,58.60
2022-12-11T14:19:19.102Z,59.80
2022-12-11T14:22:07.281Z,60.30
2022-12-11T14:24:58.854Z,61.10
2022-12-11T14:27:53.206Z,60.30
2022-12-11T14:30:48.338Z,61.00
2022-12-11T14:33:49.365Z,60.00
2022-12-11T14:36:36.379Z,60.40
2022-12-11T14:40:01.247Z,60.40
2022-12-11T14:42:57.101Z,60.30
2022-12-11T14:45:48.579Z,60.30
2022-12-11T14:48:45.757Z,59.90
2022-12-11T14:51:35.938Z,61.30
2022-12-11T14:54:45.120Z,63.20
2022-12-11T14:57:32.333Z,65.60
2022-12-11T15:00:30.678Z,67.70
2022-12-11T15:03:34.317Z,68.60
2022-12-11T15:06:33.091Z,68.00
2022-12-11T15:09:28.255Z,67.20
2022-12-11T15:12:19.819Z,67.10
2022-12-11T15:15:07.633Z,66.10
2022-12-11T15:17:53.253Z,66.20
2022-12-11T15:20:41.716Z,66.60
2022-12-11T15:23:28.747Z,66.10
2022-12-11T15:26:13.982Z,66.50
2022-12-11T15:29:02.154Z,66.30
2022-12-11T15:31:47.687Z,66.60
2022-12-11T15:34:35.485Z,66.10
2022-12-11T15:37:25.775Z,66.30
2022-12-11T15:40:12.140Z,66.20
2022-12-11T15:43:01.655Z,67.20
2022-12-11T15:45:47.038Z,68.50
2022-12-11T15:48:32.926Z,68.00
2022-12-11T15:51:18.583Z,68.20
2022-12-11T15:54:04.558Z,68.30
2022-12-11T15:56:50.152Z,67.60
2022-12-11T15:59:35.935Z,68.20
2022-12-11T16:02:21.652Z,68.10
2022-12-11T16:05:07.634Z,68.00
2022-12-11T16:07:54.759Z,66.70
2022-12-11T16:10:42.223Z,69.00
2022-12-11T16:13:27.772Z,69.20
2022-12-11T16:16:13.265Z,72.60
2022-12-11T16:18:59.279Z,72.70
2022-12-11T16:21:44.934Z,72.10
2022-12-11T16:24:30.564Z,72.50
2022-12-11T16:27:21.414Z,72.70
2022-12-11T16:30:10.818Z,72.00
2022-12-11T16:32:56.334Z,71.40
2022-12-11T16:35:43.007Z,71.00
2022-12-11T16:38:28.625Z,70.40
2022-12-11T16:41:14.217Z,70.20
2022-12-11T16:44:01.636Z,69.50
2022-12-11T16:46:47.395Z,68.90
2022-12-11T16:49:33.211Z,69.00
2022-12-11T16:52:22.104Z,69.70
2022-12-11T16:55:10.159Z,70.70
2022-12-11T16:57:56.078Z,70.20
2022-12-11T17:00:43.827Z,69.90
2022-12-11T17:03:30.782Z,69.70
2022-12-11T17:06:18.597Z,69.10
2022-12-11T17:09:04.463Z,68.80
2022-12-11T17:11:50.311Z,69.00
2022-12-11T17:14:35.992Z,69.30
2022-12-11T17:17:25.299Z,69.70
2022-12-11T17:20:11.515Z,69.90
2022-12-11T17:22:57.397Z,69.70
2022-12-11T17:25:45.179Z,69.80
2022-12-11T17:28:32.127Z,68.00
2022-12-11T17:31:19.289Z,68.90
2022-12-11T17:34:05.363Z,69.40
2022-12-11T17:36:51.434Z,68.10
2022-12-11T17:39:37.786Z,68.10
2022-12-11T17:42:23.306Z,68.50
2022-12-11T17:45:09.313Z,65.20
2022-12-11T17:47:55.045Z,66.10
2022-12-11T17:50:46.809Z,67.30
2022-12-11T17:53:32.894Z,68.00
2022-12-11T17:56:18.544Z,69.50
2022-12-11T17:59:04.125Z,70.80
2022-12-11T18:01:50.056Z,72.40
2022-12-11T18:04:38.526Z,75.00
2022-12-11T18:07:25.294Z,74.80
2022-12-11T18:10:10.610Z,74.90
2022-12-11T18:12:55.838Z,74.50
2022-12-11T18:15:41.943Z,74.10
2022-12-11T18:18:27.533Z,74.90
2022-12-11T18:21:14.477Z,73.40
2022-12-11T18:24:00.528Z,72.80
2022-12-11T18:26:46.361Z,71.70
2022-12-11T18:29:31.921Z,70.50
2022-12-11T18:32:17.081Z,69.30
2022-12-11T18:35:03.251Z,69.70
2022-12-11T18:37:48.868Z,71.50
2022-12-11T18:40:34.426Z,72.50
2022-12-11T18:43:19.690Z,72.40
2022-12-11T18:46:07.049Z,73.40
2022-12-11T18:48:52.376Z,74.10
2022-12-11T18:51:37.535Z,73.90
2022-12-11T18:54:23.186Z,74.90
2022-12-11T18:57:08.785Z,78.30
2022-12-11T18:59:54.725Z,76.80
2022-12-11T19:02:40.306Z,76.60
2022-12-11T19:05:25.837Z,72.10
2022-12-11T19:08:13.903Z,74.30
2022-12-11T19:10:59.413Z,74.10
2022-12-11T19:13:45.476Z,73.80
2022-12-11T19:16:34.164Z,73.00
2022-12-11T19:19:21.704Z,73.10
2022-12-11T19:22:07.186Z,74.70
2022-12-11T19:24:52.924Z,75.40
2022-12-11T19:27:38.506Z,75.30
2022-12-11T19:30:24.766Z,74.90
2022-12-11T19:33:10.611Z,74.50
2022-12-11T19:36:09.315Z,74.00
2022-12-11T19:39:01.093Z,73.60
2022-12-11T19:41:48.014Z,73.40
2022-12-11T19:44:33.187Z,72.00
2022-12-11T19:47:18.777Z,71.60
2022-12-11T19:50:04.642Z,71.20
2022-12-11T19:52:49.959Z,71.60
2022-12-11T19:55:35.224Z,71.10
2022-12-11T19:58:20.693Z,71.60
2022-12-11T20:01:07.499Z,72.10
2022-12-11T20:03:54.359Z,72.40
2022-12-11T20:06:42.967Z,71.90
2022-12-11T20:09:28.454Z,72.50
2022-12-11T20:12:13.762Z,71.80
2022-12-11T20:14:59.407Z,72.10
2022-12-11T20:17:44.762Z,71.90
2022-12-11T20:20:30.291Z,71.60
2022-12-11T20:23:16.281Z,71.60
2022-12-11T20:26:16.874Z,71.90
2022-12-11T20:29:05.208Z,71.90
2022-12-11T20:31:51.665Z,69.50
2022-12-11T20:34:38.242Z,69.80
2022-12-11T20:37:25.883Z,72.20
2022-12-11T20:40:12.020Z,70.30
2022-12-11T20:42:57.787Z,72.00
2022-12-11T20:45:52.359Z,72.10
2022-12-11T20:48:38.970Z,72.60
2022-12-11T20:51:26.597Z,72.50
2022-12-11T20:54:12.002Z,72.50
2022-12-11T20:56:57.309Z,72.50
2022-12-11T20:59:44.454Z,71.90
2022-12-11T21:02:30.934Z,73.40
2022-12-11T21:05:16.745Z,74.00
2022-12-11T21:08:02.364Z,74.30
2022-12-11T21:10:50.338Z,74.60
2022-12-11T21:13:36.904Z,75.20
2022-12-11T21:16:22.981Z,76.60
2022-12-11T21:19:13.681Z,75.70
2022-12-11T21:22:02.548Z,75.50
2022-12-11T21:24:48.415Z,75.60
2022-12-11T21:27:34.458Z,77.40
2022-12-11T21:30:19.932Z,77.40
2022-12-11T21:33:05.631Z,76.80
2022-12-11T21:35:55.945Z,77.80
2022-12-11T21:38:43.697Z,78.40
2022-12-11T21:41:29.134Z,79.20
2022-12-11T21:45:25.902Z,78.00
2022-12-11T21:47:21.086Z,78.80
2022-12-11T21:50:06.901Z,78.40
2022-12-11T21:52:52.392Z,77.80
2022-12-11T21:55:41.544Z,78.90
2022-12-11T21:58:27.126Z,78.10
2022-12-11T22:01:29.186Z,78.60
2022-12-11T22:04:16.051Z,78.70
2022-12-11T22:07:01.557Z,79.20
2022-12-11T22:09:47.197Z,80.20
2022-12-11T22:12:32.757Z,80.80
2022-12-11T22:15:18.120Z,79.60
2022-12-11T22:18:04.162Z,79.70
2022-12-11T22:20:49.716Z,79.20
2022-12-11T22:23:35.361Z,78.00
2022-12-11T22:26:25.839Z,78.80
2022-12-11T22:29:11.465Z,80.00
2022-12-11T22:31:57.266Z,79.90
2022-12-11T22:34:42.735Z,80.00
2022-12-11T22:37:29.180Z,80.10
2022-12-11T22:40:15.385Z,81.00
2022-12-11T22:43:00.807Z,80.10
2022-12-11T22:45:46.257Z,80.20
2022-12-11T22:48:31.827Z,81.40
2022-12-11T22:51:17.862Z,81.80
2022-12-11T22:54:04.327Z,81.90
2022-12-11T22:56:50.351Z,82.50
2022-12-11T22:59:38.964Z,81.90
2022-12-11T23:02:24.661Z,82.20
2022-12-11T23:05:12.009Z,82.20
2022-12-11T23:07:57.801Z,82.60
2022-12-11T23:10:43.357Z,82.70
2022-12-11T23:13:28.722Z,81.90
2022-12-11T23:16:14.483Z,83.10
2022-12-11T23:19:00.927Z,82.90
2022-12-11T23:21:46.390Z,83.80
2022-12-11T23:24:31.976Z,83.60
2022-12-11T23:27:17.278Z,83.30
2022-12-11T23:30:02.471Z,84.50
2022-12-11T23:32:48.142Z,84.70
2022-12-11T23:35:33.785Z,84.80
2022-12-11T23:38:19.142Z,84.50
2022-12-11T23:41:09.100Z,84.70
2022-12-11T23:43:54.827Z,84.20
2022-12-11T23:46:42.607Z,85.60
2022-12-11T23:49:27.811Z,85.90
2022-12-11T23:52:13.391Z,86.90
2022-12-11T23:54:58.883Z,86.70
2022-12-11T23:57:44.505Z,87.20
